sensor_id;sensor_type;location;lat;lon;timestamp;pressure;altitude;pressure_sealevel;temperature;humidity
35806;BME280;21925;44.608;11.580;2024-01-27T00:00:20;102694.09;;;1.01;100.00
35806;BME280;21925;44.608;11.580;2024-01-27T00:05:30;102703.16;;;0.61;100.00
35806;BME280;21925;44.608;11.580;2024-01-27T00:07:55;102754.94;;;0.92;100.00
35806;BME280;21925;44.608;11.580;2024-01-27T00:10:23;102797.66;;;1.18;100.00
35806;BME280;21925;44.608;11.580;2024-01-27T00:12:50;102769.94;;;0.99;100.00
35806;BME280;21925;44.608;11.580;2024-01-27T00:15:17;102742.34;;;0.97;100.00
35806;BME280;21925;44.608;11.580;2024-01-27T00:17:43;102754.09;;;1.03;100.00
35806;BME280;21925;44.608;11.580;2024-01-27T00:20:13;102816.22;;;1.49;100.00
35806;BME280;21925;44.608;11.580;2024-01-27T00:22:42;102744.69;;;1.05;100.00
35806;BME280;21925;44.608;11.580;2024-01-27T00:25:09;102708.19;;;0.91;100.00
35806;BME280;21925;44.608;11.580;2024-01-27T00:27:36;102716.78;;;0.88;100.00
35806;BME280;21925;44.608;11.580;2024-01-27T00:30:03;102757.81;;;1.13;100.00
35806;BME280;21925;44.608;11.580;2024-01-27T00:32:30;102709.50;;;0.77;100.00
35806;BME280;21925;44.608;11.580;2024-01-27T00:34:59;102779.44;;;1.02;100.00
35806;BME280;21925;44.608;11.580;2024-01-27T00:37:25;102775.25;;;0.94;100.00
35806;BME280;21925;44.608;11.580;2024-01-27T00:39:51;102815.63;;;1.47;100.00
35806;BME280;21925;44.608;11.580;2024-01-27T00:42:17;102759.97;;;1.23;100.00
35806;BME280;21925;44.608;11.580;2024-01-27T00:44:50;102789.53;;;1.52;100.00
35806;BME280;21925;44.608;11.580;2024-01-27T00:47:16;102790.09;;;1.54;100.00
35806;BME280;21925;44.608;11.580;2024-01-27T00:49:42;102819.72;;;2.00;100.00
35806;BME280;21925;44.608;11.580;2024-01-27T00:52:08;102840.16;;;2.35;100.00
35806;BME280;21925;44.608;11.580;2024-01-27T00:54:33;102719.13;;;1.47;100.00
35806;BME280;21925;44.608;11.580;2024-01-27T00:56:59;102821.00;;;2.09;100.00
35806;BME280;21925;44.608;11.580;2024-01-27T00:59:25;102773.69;;;1.72;100.00
35806;BME280;21925;44.608;11.580;2024-01-27T01:01:52;102853.44;;;2.36;100.00
35806;BME280;21925;44.608;11.580;2024-01-27T01:04:17;102819.53;;;2.18;100.00
35806;BME280;21925;44.608;11.580;2024-01-27T01:06:43;102812.56;;;2.22;100.00
35806;BME280;21925;44.608;11.580;2024-01-27T01:09:10;102877.31;;;2.67;100.00
35806;BME280;21925;44.608;11.580;2024-01-27T01:11:36;102796.78;;;2.02;100.00
35806;BME280;21925;44.608;11.580;2024-01-27T01:14:04;102826.41;;;2.09;100.00
35806;BME280;21925;44.608;11.580;2024-01-27T01:16:30;102742.28;;;1.43;100.00
35806;BME280;21925;44.608;11.580;2024-01-27T01:18:57;102810.44;;;1.96;100.00
35806;BME280;21925;44.608;11.580;2024-01-27T01:21:23;102884.88;;;2.37;100.00
35806;BME280;21925;44.608;11.580;2024-01-27T01:23:50;102847.25;;;1.97;100.00
35806;BME280;21925;44.608;11.580;2024-01-27T01:26:16;102826.28;;;1.64;100.00
35806;BME280;21925;44.608;11.580;2024-01-27T01:28:41;102830.28;;;1.73;100.00
35806;BME280;21925;44.608;11.580;2024-01-27T01:31:09;102805.75;;;1.52;100.00
35806;BME280;21925;44.608;11.580;2024-01-27T01:33:37;102741.53;;;1.59;100.00
35806;BME280;21925;44.608;11.580;2024-01-27T01:36:03;102859.81;;;2.03;100.00
35806;BME280;21925;44.608;11.580;2024-01-27T01:38:29;102878.50;;;2.16;100.00
35806;BME280;21925;44.608;11.580;2024-01-27T01:40:56;102896.97;;;2.46;100.00
35806;BME280;21925;44.608;11.580;2024-01-27T01:43:21;102834.22;;;1.94;100.00
35806;BME280;21925;44.608;11.580;2024-01-27T01:45:47;102881.19;;;2.16;100.00
35806;BME280;21925;44.608;11.580;2024-01-27T01:48:16;102914.31;;;1.83;100.00
35806;BME280;21925;44.608;11.580;2024-01-27T01:50:42;102867.28;;;1.73;100.00
35806;BME280;21925;44.608;11.580;2024-01-27T01:53:08;102885.03;;;1.80;100.00
35806;BME280;21925;44.608;11.580;2024-01-27T01:55:34;102871.66;;;1.62;100.00
35806;BME280;21925;44.608;11.580;2024-01-27T01:58:00;102814.44;;;1.31;100.00
35806;BME280;21925;44.608;11.580;2024-01-27T02:00:26;102828.53;;;1.33;100.00
35806;BME280;21925;44.608;11.580;2024-01-27T02:02:53;102901.16;;;1.64;100.00
35806;BME280;21925;44.608;11.580;2024-01-27T02:05:19;102911.28;;;1.57;100.00
35806;BME280;21925;44.608;11.580;2024-01-27T02:07:45;102872.03;;;1.20;100.00
35806;BME280;21925;44.608;11.580;2024-01-27T02:10:15;102854.28;;;1.13;100.00
35806;BME280;21925;44.608;11.580;2024-01-27T02:12:43;102928.19;;;1.64;100.00
35806;BME280;21925;44.608;11.580;2024-01-27T02:15:13;102880.00;;;1.27;100.00
35806;BME280;21925;44.608;11.580;2024-01-27T02:17:42;102837.31;;;0.72;100.00
35806;BME280;21925;44.608;11.580;2024-01-27T02:20:08;102760.63;;;0.09;100.00
35806;BME280;21925;44.608;11.580;2024-01-27T02:22:34;102853.28;;;0.73;100.00
35806;BME280;21925;44.608;11.580;2024-01-27T02:25:02;102848.53;;;0.57;100.00
35806;BME280;21925;44.608;11.580;2024-01-27T02:27:28;102832.38;;;0.28;100.00
35806;BME280;21925;44.608;11.580;2024-01-27T02:29:54;102944.84;;;1.15;100.00
35806;BME280;21925;44.608;11.580;2024-01-27T02:32:20;102891.69;;;0.86;100.00
35806;BME280;21925;44.608;11.580;2024-01-27T02:34:47;102837.50;;;0.59;100.00
35806;BME280;21925;44.608;11.580;2024-01-27T02:37:14;102922.06;;;1.11;100.00
35806;BME280;21925;44.608;11.580;2024-01-27T02:39:40;102906.91;;;1.22;100.00
35806;BME280;21925;44.608;11.580;2024-01-27T02:42:06;102944.91;;;1.61;100.00
35806;BME280;21925;44.608;11.580;2024-01-27T02:44:34;102909.63;;;1.45;100.00
35806;BME280;21925;44.608;11.580;2024-01-27T02:47:00;102931.59;;;1.59;100.00
35806;BME280;21925;44.608;11.580;2024-01-27T02:49:26;102917.28;;;1.59;100.00
35806;BME280;21925;44.608;11.580;2024-01-27T02:51:53;102896.69;;;1.47;100.00
35806;BME280;21925;44.608;11.580;2024-01-27T02:54:19;102964.63;;;1.73;100.00
35806;BME280;21925;44.608;11.580;2024-01-27T02:56:46;102924.88;;;1.39;100.00
35806;BME280;21925;44.608;11.580;2024-01-27T02:59:12;102923.38;;;1.32;100.00
35806;BME280;21925;44.608;11.580;2024-01-27T03:01:38;102850.34;;;0.75;100.00
35806;BME280;21925;44.608;11.580;2024-01-27T03:04:04;102867.88;;;0.95;100.00
35806;BME280;21925;44.608;11.580;2024-01-27T03:06:30;102952.97;;;1.38;100.00
35806;BME280;21925;44.608;11.580;2024-01-27T03:08:55;102862.53;;;0.77;100.00
35806;BME280;21925;44.608;11.580;2024-01-27T03:11:22;102942.38;;;1.14;100.00
35806;BME280;21925;44.608;11.580;2024-01-27T03:13:47;102962.13;;;1.26;100.00
35806;BME280;21925;44.608;11.580;2024-01-27T03:16:13;102950.59;;;1.19;100.00
35806;BME280;21925;44.608;11.580;2024-01-27T03:18:39;102965.66;;;1.26;100.00
35806;BME280;21925;44.608;11.580;2024-01-27T03:21:09;102989.31;;;1.42;100.00
35806;BME280;21925;44.608;11.580;2024-01-27T03:23:35;102986.88;;;1.11;100.00
35806;BME280;21925;44.608;11.580;2024-01-27T03:26:02;102938.06;;;0.83;100.00
35806;BME280;21925;44.608;11.580;2024-01-27T03:28:31;102939.25;;;0.87;100.00
35806;BME280;21925;44.608;11.580;2024-01-27T03:30:57;103013.50;;;1.37;100.00
35806;BME280;21925;44.608;11.580;2024-01-27T03:33:25;102944.78;;;0.92;100.00
35806;BME280;21925;44.608;11.580;2024-01-27T03:35:52;102982.13;;;1.36;100.00
35806;BME280;21925;44.608;11.580;2024-01-27T03:38:17;102985.75;;;1.30;100.00
35806;BME280;21925;44.608;11.580;2024-01-27T03:40:43;102990.44;;;1.35;100.00
35806;BME280;21925;44.608;11.580;2024-01-27T03:43:09;102924.19;;;0.80;100.00
35806;BME280;21925;44.608;11.580;2024-01-27T03:45:35;102984.34;;;1.28;100.00
35806;BME280;21925;44.608;11.580;2024-01-27T03:48:00;102994.94;;;1.29;100.00
35806;BME280;21925;44.608;11.580;2024-01-27T03:50:26;103003.16;;;1.34;100.00
35806;BME280;21925;44.608;11.580;2024-01-27T03:52:52;102984.88;;;1.07;100.00
35806;BME280;21925;44.608;11.580;2024-01-27T03:55:25;103011.88;;;1.36;100.00
35806;BME280;21925;44.608;11.580;2024-01-27T03:57:52;102983.53;;;1.39;100.00
35806;BME280;21925;44.608;11.580;2024-01-27T04:00:17;102995.78;;;1.53;100.00
35806;BME280;21925;44.608;11.580;2024-01-27T04:02:44;102942.75;;;1.40;100.00
35806;BME280;21925;44.608;11.580;2024-01-27T04:05:11;102975.06;;;1.35;100.00
35806;BME280;21925;44.608;11.580;2024-01-27T04:07:37;102989.31;;;1.42;100.00
35806;BME280;21925;44.608;11.580;2024-01-27T04:10:03;102950.22;;;1.15;100.00
35806;BME280;21925;44.608;11.580;2024-01-27T04:12:30;102960.88;;;1.51;100.00
35806;BME280;21925;44.608;11.580;2024-01-27T04:14:58;103041.66;;;1.70;100.00
35806;BME280;21925;44.608;11.580;2024-01-27T04:17:26;102966.09;;;1.12;100.00
35806;BME280;21925;44.608;11.580;2024-01-27T04:19:52;102972.81;;;1.32;100.00
35806;BME280;21925;44.608;11.580;2024-01-27T04:22:18;103042.69;;;1.58;100.00
35806;BME280;21925;44.608;11.580;2024-01-27T04:24:44;103031.94;;;1.40;100.00
35806;BME280;21925;44.608;11.580;2024-01-27T04:27:10;103035.84;;;1.44;100.00
35806;BME280;21925;44.608;11.580;2024-01-27T04:29:36;102996.56;;;1.30;100.00
35806;BME280;21925;44.608;11.580;2024-01-27T04:32:02;102941.28;;;1.03;100.00
35806;BME280;21925;44.608;11.580;2024-01-27T04:34:27;102972.72;;;1.39;100.00
35806;BME280;21925;44.608;11.580;2024-01-27T04:36:54;103028.13;;;1.82;100.00
35806;BME280;21925;44.608;11.580;2024-01-27T04:39:20;102955.22;;;1.41;100.00
35806;BME280;21925;44.608;11.580;2024-01-27T04:41:45;102970.03;;;1.39;100.00
35806;BME280;21925;44.608;11.580;2024-01-27T04:44:12;102965.91;;;1.25;100.00
35806;BME280;21925;44.608;11.580;2024-01-27T04:46:39;103025.91;;;1.79;100.00
35806;BME280;21925;44.608;11.580;2024-01-27T04:49:04;103007.31;;;1.71;100.00
35806;BME280;21925;44.608;11.580;2024-01-27T04:51:30;102932.09;;;1.45;100.00
35806;BME280;21925;44.608;11.580;2024-01-27T04:53:56;103016.88;;;1.85;100.00
35806;BME280;21925;44.608;11.580;2024-01-27T04:56:25;103004.41;;;1.84;100.00
35806;BME280;21925;44.608;11.580;2024-01-27T04:58:51;103032.59;;;1.88;100.00
35806;BME280;21925;44.608;11.580;2024-01-27T05:01:16;102995.19;;;1.62;100.00
35806;BME280;21925;44.608;11.580;2024-01-27T05:03:42;103035.19;;;1.83;100.00
35806;BME280;21925;44.608;11.580;2024-01-27T05:06:09;103009.56;;;1.74;100.00
35806;BME280;21925;44.608;11.580;2024-01-27T05:08:35;103026.72;;;1.68;100.00
35806;BME280;21925;44.608;11.580;2024-01-27T05:11:01;103030.38;;;1.73;100.00
35806;BME280;21925;44.608;11.580;2024-01-27T05:13:27;102988.34;;;1.37;100.00
35806;BME280;21925;44.608;11.580;2024-01-27T05:15:53;102956.16;;;1.35;100.00
35806;BME280;21925;44.608;11.580;2024-01-27T05:18:20;102949.44;;;1.26;100.00
35806;BME280;21925;44.608;11.580;2024-01-27T05:20:46;102920.31;;;1.17;100.00
35806;BME280;21925;44.608;11.580;2024-01-27T05:23:12;102938.75;;;1.31;100.00
35806;BME280;21925;44.608;11.580;2024-01-27T05:25:39;102992.72;;;1.60;100.00
35806;BME280;21925;44.608;11.580;2024-01-27T05:28:05;102921.22;;;1.11;100.00
35806;BME280;21925;44.608;11.580;2024-01-27T05:30:31;102964.38;;;1.40;100.00
35806;BME280;21925;44.608;11.580;2024-01-27T05:32:58;102983.91;;;1.42;100.00
35806;BME280;21925;44.608;11.580;2024-01-27T05:35:24;102877.47;;;0.68;100.00
35806;BME280;21925;44.608;11.580;2024-01-27T05:37:50;103038.84;;;1.77;100.00
35806;BME280;21925;44.608;11.580;2024-01-27T05:40:17;103023.78;;;1.69;100.00
35806;BME280;21925;44.608;11.580;2024-01-27T05:42:43;103026.44;;;1.47;100.00
35806;BME280;21925;44.608;11.580;2024-01-27T05:45:11;102995.28;;;1.33;100.00
35806;BME280;21925;44.608;11.580;2024-01-27T05:47:38;102971.03;;;1.15;100.00
35806;BME280;21925;44.608;11.580;2024-01-27T05:50:04;103038.00;;;1.65;100.00
35806;BME280;21925;44.608;11.580;2024-01-27T05:52:33;103017.75;;;1.56;100.00
35806;BME280;21925;44.608;11.580;2024-01-27T05:54:59;103047.50;;;1.56;100.00
35806;BME280;21925;44.608;11.580;2024-01-27T05:57:25;103010.31;;;1.40;100.00
35806;BME280;21925;44.608;11.580;2024-01-27T05:59:51;103040.31;;;1.50;100.00
35806;BME280;21925;44.608;11.580;2024-01-27T06:02:17;103009.19;;;1.48;100.00
35806;BME280;21925;44.608;11.580;2024-01-27T06:04:44;103011.63;;;1.49;100.00
35806;BME280;21925;44.608;11.580;2024-01-27T06:07:09;102978.22;;;1.21;100.00
35806;BME280;21925;44.608;11.580;2024-01-27T06:09:37;102961.84;;;1.04;100.00
35806;BME280;21925;44.608;11.580;2024-01-27T06:12:03;103055.16;;;1.59;100.00
35806;BME280;21925;44.608;11.580;2024-01-27T06:14:30;102980.06;;;1.09;100.00
35806;BME280;21925;44.608;11.580;2024-01-27T06:16:56;102995.50;;;0.90;100.00
35806;BME280;21925;44.608;11.580;2024-01-27T06:19:22;103007.94;;;0.91;100.00
35806;BME280;21925;44.608;11.580;2024-01-27T06:21:48;102959.06;;;0.81;100.00
35806;BME280;21925;44.608;11.580;2024-01-27T06:24:14;103036.25;;;1.18;100.00
35806;BME280;21925;44.608;11.580;2024-01-27T06:26:40;102995.00;;;1.11;100.00
35806;BME280;21925;44.608;11.580;2024-01-27T06:29:06;102957.28;;;0.76;100.00
35806;BME280;21925;44.608;11.580;2024-01-27T06:31:32;103046.16;;;1.36;100.00
35806;BME280;21925;44.608;11.580;2024-01-27T06:33:57;102956.97;;;0.83;100.00
35806;BME280;21925;44.608;11.580;2024-01-27T06:36:23;103011.44;;;1.21;100.00
35806;BME280;21925;44.608;11.580;2024-01-27T06:38:51;103022.06;;;1.34;100.00
35806;BME280;21925;44.608;11.580;2024-01-27T06:41:17;103048.66;;;1.37;100.00
35806;BME280;21925;44.608;11.580;2024-01-27T06:43:43;103031.75;;;1.12;100.00
35806;BME280;21925;44.608;11.580;2024-01-27T06:46:09;102993.66;;;1.02;100.00
35806;BME280;21925;44.608;11.580;2024-01-27T06:48:34;103011.16;;;1.00;100.00
35806;BME280;21925;44.608;11.580;2024-01-27T06:51:00;103028.59;;;1.15;100.00
35806;BME280;21925;44.608;11.580;2024-01-27T06:53:26;102988.00;;;0.92;100.00
35806;BME280;21925;44.608;11.580;2024-01-27T06:55:53;103074.53;;;1.56;100.00
35806;BME280;21925;44.608;11.580;2024-01-27T06:58:19;103013.84;;;1.29;100.00
35806;BME280;21925;44.608;11.580;2024-01-27T07:00:45;103052.94;;;1.90;100.00
35806;BME280;21925;44.608;11.580;2024-01-27T07:03:11;103050.13;;;1.97;100.00
35806;BME280;21925;44.608;11.580;2024-01-27T07:05:36;103016.63;;;1.75;100.00
35806;BME280;21925;44.608;11.580;2024-01-27T07:08:09;103041.06;;;2.03;100.00
35806;BME280;21925;44.608;11.580;2024-01-27T07:10:35;103033.69;;;2.10;100.00
35806;BME280;21925;44.608;11.580;2024-01-27T07:13:01;103055.19;;;2.28;100.00
35806;BME280;21925;44.608;11.580;2024-01-27T07:15:27;103020.47;;;1.79;100.00
35806;BME280;21925;44.608;11.580;2024-01-27T07:17:53;102987.41;;;1.43;100.00
35806;BME280;21925;44.608;11.580;2024-01-27T07:20:19;103013.91;;;1.63;100.00
35806;BME280;21925;44.608;11.580;2024-01-27T07:22:47;102996.22;;;1.50;100.00
35806;BME280;21925;44.608;11.580;2024-01-27T07:25:13;102998.03;;;1.67;100.00
35806;BME280;21925;44.608;11.580;2024-01-27T07:27:39;103017.22;;;1.88;100.00
35806;BME280;21925;44.608;11.580;2024-01-27T07:30:05;103040.72;;;2.11;100.00
35806;BME280;21925;44.608;11.580;2024-01-27T07:32:35;103010.63;;;1.96;100.00
35806;BME280;21925;44.608;11.580;2024-01-27T07:35:01;103001.19;;;1.87;100.00
35806;BME280;21925;44.608;11.580;2024-01-27T07:37:28;102975.69;;;1.71;100.00
35806;BME280;21925;44.608;11.580;2024-01-27T07:39:54;103032.00;;;1.86;100.00
35806;BME280;21925;44.608;11.580;2024-01-27T07:42:20;103061.81;;;2.09;100.00
35806;BME280;21925;44.608;11.580;2024-01-27T07:44:46;103043.31;;;1.94;100.00
35806;BME280;21925;44.608;11.580;2024-01-27T07:47:11;103010.25;;;1.81;100.00
35806;BME280;21925;44.608;11.580;2024-01-27T07:49:37;103061.66;;;2.04;100.00
35806;BME280;21925;44.608;11.580;2024-01-27T07:52:03;103052.59;;;1.87;100.00
35806;BME280;21925;44.608;11.580;2024-01-27T07:54:29;103024.84;;;1.68;100.00
35806;BME280;21925;44.608;11.580;2024-01-27T07:56:55;103087.47;;;2.18;100.00
35806;BME280;21925;44.608;11.580;2024-01-27T07:59:20;103029.00;;;1.94;100.00
35806;BME280;21925;44.608;11.580;2024-01-27T08:01:46;103045.31;;;2.10;100.00
35806;BME280;21925;44.608;11.580;2024-01-27T08:04:12;103090.72;;;2.65;100.00
35806;BME280;21925;44.608;11.580;2024-01-27T08:06:49;103099.03;;;2.87;100.00
35806;BME280;21925;44.608;11.580;2024-01-27T08:09:15;103080.78;;;2.82;100.00
35806;BME280;21925;44.608;11.580;2024-01-27T08:11:42;103086.88;;;2.89;100.00
35806;BME280;21925;44.608;11.580;2024-01-27T08:14:09;103056.03;;;2.90;100.00
35806;BME280;21925;44.608;11.580;2024-01-27T08:16:35;103078.38;;;3.53;100.00
35806;BME280;21925;44.608;11.580;2024-01-27T08:19:02;103078.38;;;3.53;100.00
35806;BME280;21925;44.608;11.580;2024-01-27T08:21:28;103060.13;;;3.65;100.00
35806;BME280;21925;44.608;11.580;2024-01-27T08:23:53;103065.06;;;3.68;100.00
35806;BME280;21925;44.608;11.580;2024-01-27T08:26:20;103098.94;;;4.14;100.00
35806;BME280;21925;44.608;11.580;2024-01-27T08:28:49;103081.34;;;4.00;100.00
35806;BME280;21925;44.608;11.580;2024-01-27T08:31:15;103092.06;;;4.07;100.00
35806;BME280;21925;44.608;11.580;2024-01-27T08:33:41;103001.41;;;3.92;100.00
35806;BME280;21925;44.608;11.580;2024-01-27T08:36:07;103103.53;;;4.47;100.00
35806;BME280;21925;44.608;11.580;2024-01-27T08:38:32;103045.97;;;4.12;100.00
35806;BME280;21925;44.608;11.580;2024-01-27T08:40:58;103098.19;;;4.73;100.00
35806;BME280;21925;44.608;11.580;2024-01-27T08:43:24;103066.16;;;4.75;100.00
35806;BME280;21925;44.608;11.580;2024-01-27T08:45:50;103095.03;;;4.81;100.00
35806;BME280;21925;44.608;11.580;2024-01-27T08:48:18;103117.72;;;4.91;100.00
35806;BME280;21925;44.608;11.580;2024-01-27T08:50:47;103122.09;;;5.14;100.00
35806;BME280;21925;44.608;11.580;2024-01-27T08:53:13;103119.31;;;5.09;100.00
35806;BME280;21925;44.608;11.580;2024-01-27T08:55:39;103068.88;;;4.75;100.00
35806;BME280;21925;44.608;11.580;2024-01-27T08:58:05;103073.59;;;4.84;100.00
35806;BME280;21925;44.608;11.580;2024-01-27T09:00:31;103041.69;;;4.75;100.00
35806;BME280;21925;44.608;11.580;2024-01-27T09:02:58;103125.31;;;5.32;100.00
35806;BME280;21925;44.608;11.580;2024-01-27T09:05:23;103071.53;;;5.18;100.00
35806;BME280;21925;44.608;11.580;2024-01-27T09:07:49;103115.06;;;5.92;100.00
35806;BME280;21925;44.608;11.580;2024-01-27T09:10:15;103101.53;;;5.75;100.00
35806;BME280;21925;44.608;11.580;2024-01-27T09:12:41;103083.13;;;5.82;100.00
35806;BME280;21925;44.608;11.580;2024-01-27T09:15:09;103079.09;;;5.90;100.00
35806;BME280;21925;44.608;11.580;2024-01-27T09:17:35;103067.16;;;5.64;100.00
35806;BME280;21925;44.608;11.580;2024-01-27T09:20:01;103111.53;;;6.28;100.00
35806;BME280;21925;44.608;11.580;2024-01-27T09:22:29;103073.59;;;6.16;100.00
35806;BME280;21925;44.608;11.580;2024-01-27T09:24:55;103078.13;;;6.42;100.00
35806;BME280;21925;44.608;11.580;2024-01-27T09:27:21;103095.34;;;6.52;100.00
35806;BME280;21925;44.608;11.580;2024-01-27T09:29:46;103014.69;;;6.05;100.00
35806;BME280;21925;44.608;11.580;2024-01-27T09:32:12;103149.22;;;6.77;100.00
35806;BME280;21925;44.608;11.580;2024-01-27T09:34:39;103140.75;;;6.73;100.00
35806;BME280;21925;44.608;11.580;2024-01-27T09:37:05;103107.78;;;6.80;100.00
35806;BME280;21925;44.608;11.580;2024-01-27T09:39:31;103138.34;;;6.87;100.00
35806;BME280;21925;44.608;11.580;2024-01-27T09:42:01;103083.22;;;6.75;100.00
35806;BME280;21925;44.608;11.580;2024-01-27T09:44:31;103125.31;;;6.94;100.00
35806;BME280;21925;44.608;11.580;2024-01-27T09:46:57;103034.59;;;6.52;100.00
35806;BME280;21925;44.608;11.580;2024-01-27T09:49:25;103100.84;;;7.09;100.00
35806;BME280;21925;44.608;11.580;2024-01-27T09:51:51;103070.50;;;6.90;100.00
35806;BME280;21925;44.608;11.580;2024-01-27T09:54:18;103125.81;;;7.47;100.00
35806;BME280;21925;44.608;11.580;2024-01-27T09:56:47;103139.75;;;7.65;100.00
35806;BME280;21925;44.608;11.580;2024-01-27T09:59:14;103143.03;;;7.57;100.00
35806;BME280;21925;44.608;11.580;2024-01-27T10:01:44;103162.19;;;7.82;100.00
35806;BME280;21925;44.608;11.580;2024-01-27T10:04:11;103180.78;;;7.95;100.00
35806;BME280;21925;44.608;11.580;2024-01-27T10:06:43;103105.31;;;7.59;100.00
35806;BME280;21925;44.608;11.580;2024-01-27T10:09:10;103181.94;;;8.34;100.00
35806;BME280;21925;44.608;11.580;2024-01-27T10:11:36;103178.94;;;8.25;100.00
35806;BME280;21925;44.608;11.580;2024-01-27T10:14:05;103172.63;;;8.45;100.00
35806;BME280;21925;44.608;11.580;2024-01-27T10:16:42;103185.16;;;8.75;100.00
35806;BME280;21925;44.608;11.580;2024-01-27T10:19:15;103142.53;;;8.60;100.00
35806;BME280;21925;44.608;11.580;2024-01-27T10:21:45;103179.69;;;8.95;100.00
35806;BME280;21925;44.608;11.580;2024-01-27T10:24:12;103141.94;;;8.87;100.00
35806;BME280;21925;44.608;11.580;2024-01-27T10:26:38;103136.38;;;9.12;100.00
35806;BME280;21925;44.608;11.580;2024-01-27T10:29:05;103133.66;;;9.07;100.00
35806;BME280;21925;44.608;11.580;2024-01-27T10:31:34;103161.50;;;9.77;100.00
35806;BME280;21925;44.608;11.580;2024-01-27T10:34:00;103120.59;;;9.86;100.00
35806;BME280;21925;44.608;11.580;2024-01-27T10:36:41;103156.19;;;10.01;100.00
35806;BME280;21925;44.608;11.580;2024-01-27T10:39:17;103146.72;;;9.73;100.00
35806;BME280;21925;44.608;11.580;2024-01-27T10:41:45;103107.41;;;9.49;100.00
35806;BME280;21925;44.608;11.580;2024-01-27T10:44:16;103156.06;;;10.16;100.00
35806;BME280;21925;44.608;11.580;2024-01-27T10:46:49;103157.88;;;9.87;100.00
35806;BME280;21925;44.608;11.580;2024-01-27T10:49:17;103147.56;;;9.74;100.00
35806;BME280;21925;44.608;11.580;2024-01-27T10:51:54;103106.22;;;9.22;100.00
35806;BME280;21925;44.608;11.580;2024-01-27T10:54:25;103120.91;;;9.41;100.00
35806;BME280;21925;44.608;11.580;2024-01-27T10:56:55;103161.16;;;9.41;100.00
35806;BME280;21925;44.608;11.580;2024-01-27T10:59:21;103155.72;;;9.31;100.00
35806;BME280;21925;44.608;11.580;2024-01-27T11:01:49;103146.94;;;8.46;100.00
35806;BME280;21925;44.608;11.580;2024-01-27T11:04:20;103140.38;;;8.47;100.00
35806;BME280;21925;44.608;11.580;2024-01-27T11:06:48;103123.94;;;8.72;100.00
35806;BME280;21925;44.608;11.580;2024-01-27T11:09:14;103157.34;;;8.39;100.00
35806;BME280;21925;44.608;11.580;2024-01-27T11:11:43;103152.97;;;8.28;100.00
35806;BME280;21925;44.608;11.580;2024-01-27T11:14:10;103101.81;;;7.79;100.00
35806;BME280;21925;44.608;11.580;2024-01-27T11:16:37;103118.25;;;8.43;100.00
35806;BME280;21925;44.608;11.580;2024-01-27T11:19:11;103114.09;;;8.51;100.00
35806;BME280;21925;44.608;11.580;2024-01-27T11:21:37;103127.25;;;8.34;100.00
35806;BME280;21925;44.608;11.580;2024-01-27T11:24:17;103141.47;;;8.16;100.00
35806;BME280;21925;44.608;11.580;2024-01-27T11:26:44;103109.19;;;8.03;100.00
35806;BME280;21925;44.608;11.580;2024-01-27T11:29:12;103119.03;;;8.09;100.00
35806;BME280;21925;44.608;11.580;2024-01-27T11:31:45;103134.09;;;8.21;100.00
35806;BME280;21925;44.608;11.580;2024-01-27T11:34:12;103107.56;;;8.12;100.00
35806;BME280;21925;44.608;11.580;2024-01-27T11:36:42;103130.25;;;8.42;100.00
35806;BME280;21925;44.608;11.580;2024-01-27T11:41:48;103116.03;;;8.60;100.00
35806;BME280;21925;44.608;11.580;2024-01-27T11:44:19;103173.63;;;8.98;100.00
35806;BME280;21925;44.608;11.580;2024-01-27T11:47:25;103106.97;;;8.65;100.00
35806;BME280;21925;44.608;11.580;2024-01-27T11:49:54;103124.44;;;8.73;100.00
35806;BME280;21925;44.608;11.580;2024-01-27T11:52:21;103163.91;;;9.36;100.00
35806;BME280;21925;44.608;11.580;2024-01-27T11:54:54;103156.63;;;9.11;100.00
35806;BME280;21925;44.608;11.580;2024-01-27T11:57:20;103125.28;;;8.69;100.00
35806;BME280;21925;44.608;11.580;2024-01-27T11:59:46;103124.44;;;8.73;100.00
35806;BME280;21925;44.608;11.580;2024-01-27T12:02:13;103088.97;;;8.34;100.00
35806;BME280;21925;44.608;11.580;2024-01-27T12:04:39;103145.16;;;9.04;100.00
35806;BME280;21925;44.608;11.580;2024-01-27T12:07:05;103151.75;;;9.03;100.00
35806;BME280;21925;44.608;11.580;2024-01-27T12:09:31;103135.28;;;9.08;100.00
35806;BME280;21925;44.608;11.580;2024-01-27T12:12:08;103080.47;;;8.55;100.00
35806;BME280;21925;44.608;11.580;2024-01-27T12:15:05;103106.16;;;8.64;100.00
35806;BME280;21925;44.608;11.580;2024-01-27T12:17:41;103128.53;;;8.91;100.00
35806;BME280;21925;44.608;11.580;2024-01-27T12:20:14;103096.03;;;8.60;100.00
35806;BME280;21925;44.608;11.580;2024-01-27T12:22:43;103121.72;;;8.78;100.00
35806;BME280;21925;44.608;11.580;2024-01-27T12:25:12;103109.09;;;8.87;100.00
35806;BME280;21925;44.608;11.580;2024-01-27T12:27:39;103130.28;;;9.25;100.00
35806;BME280;21925;44.608;11.580;2024-01-27T12:30:06;103088.38;;;9.30;100.00
35806;BME280;21925;44.608;11.580;2024-01-27T12:32:31;103075.19;;;9.37;100.00
35806;BME280;21925;44.608;11.580;2024-01-27T12:35:06;103109.91;;;9.46;100.00
35806;BME280;21925;44.608;11.580;2024-01-27T12:37:32;103092.63;;;9.50;100.00
35806;BME280;21925;44.608;11.580;2024-01-27T12:39:59;103077.66;;;9.76;100.00
35806;BME280;21925;44.608;11.580;2024-01-27T12:42:25;103113.84;;;10.12;100.00
35806;BME280;21925;44.608;11.580;2024-01-27T12:44:50;103079.69;;;10.04;100.00